KMKT

Mankato Regional Airport

Mankato, Minnesota, USA
KMKT 161720Z 1618/1718 30007KT P6SM SKC FM170100 VRB03KT P6SM SKC FM170900 VRB03KT P6SM SCT070
Issued Valid From Valid To
Jul-16 @ 17:20 UTC
(3 hours ago)
Jul-16 @ 18:00 UTC
(2 hours ago)
Jul-17 @ 18:00 UTC
(in 22 hours)
Jul-16 @ 18:00 to Jul-17 @ 01:00
KMKT 161720Z 1618/1718 30007KT P6SM SKC
Wind Visibility Clouds
300° at 7 knots Greater than 6 miles
  • Clear skies
From Jul-17 @ 01:00 to Jul-17 @ 09:00
FM170100 VRB03KT P6SM SKC
Wind Visibility Clouds
Variable at 3 knots Greater than 6 miles
  • Clear skies
From Jul-17 @ 09:00 to Jul-17 @ 18:00
FM170900 VRB03KT P6SM SCT070
Wind Visibility Clouds
Variable at 3 knots Greater than 6 miles
  • Scattered at 7,000' AGL
KMKT 161720Z 1618/1718 30007KT P6SM SKC FM170100 VRB03KT P6SM SKC FM170900 VRB03KT P6SM SCT070
Issued Jul-16 @ 17:20 UTC
(3 hours ago)
Valid From Jul-16 @ 18:00 UTC
(2 hours ago)
Valid To Jul-17 @ 18:00 UTC
(in 22 hours)
Jul-16 @ 18:00 - Jul-17 @ 01:00
Wind Visibility
300° at 7 knots Greater than 6 miles
Clouds
  • Clear skies
From Jul-17 @ 01:00 - Jul-17 @ 09:00
Wind Visibility
Variable at 3 knots Greater than 6 miles
Clouds
  • Clear skies
From Jul-17 @ 09:00 - Jul-17 @ 18:00
Wind Visibility
Variable at 3 knots Greater than 6 miles
Clouds
  • Scattered at 7,000' AGL